Time;durP1;ratioP1;P1;durP2;ratioP2;P2;SDS_P1;SDS_P2;PMS_P1;PMS_P2;Temp;Humidity;BMP_temperature;BMP_pressure;BME280_temperature;BME280_humidity;BME280_pressure;Samples;Min_cycle;Max_cycle;Signal;HPM_P1;HPM_P2
2024/02/10 00:03:02;;;;;;;;;;;;;;;6.76;98.97;97916.77;137120;1276;22389;-75
2024/02/10 00:06:03;;;;;;;;;;;;;;;6.73;98.80;97912.83;137117;1276;22417;-76
2024/02/10 00:09:26;;;;;;;;;;;;;;;6.70;98.67;97914.62;137125;1276;22405;-77
2024/02/10 00:12:31;;;;;;;;;;;;;;;6.65;98.75;97912.05;137037;1276;22480;-76
2024/02/10 00:15:57;;;;;;;;;;;;;;;;;;;;;
2024/02/10 00:19:09;;;;;;;;;;;;;;;6.63;98.68;97907.50;137118;1269;22374;-75
2024/02/10 00:22:10;;;;;;;;;;;;;;;6.59;98.52;97904.85;137129;1270;22897;-75
2024/02/10 00:25:19;;;;;;;;;;;;;;;6.53;98.50;97912.30;137083;1276;23099;-76
2024/02/10 00:28:26;;;;;;;;;;;;;;;6.47;98.49;97915.47;137118;1276;22291;-75
2024/02/10 00:32:21;;;;;;;;;;;;;;;;;;;;;
2024/02/10 00:35:39;;;;;;;;;;;;;;;6.38;98.28;97917.33;137123;1276;22447;-75
2024/02/10 00:38:53;;;;;;;;;;;;;;;6.26;98.17;97917.79;137139;1276;22430;-75
2024/02/10 00:42:16;;;;;;;;;;;;;;;6.23;98.49;97920.20;137109;1276;22401;-75
2024/02/10 00:46:00;;;;;;;;;;;;;;;6.23;98.73;97922.18;137091;1270;22421;-75
2024/02/10 00:50:06;;;;;;;;;;;;;;;6.23;98.68;97921.82;137019;1276;22487;-76
2024/02/10 00:52:56;;;;;;;;;;;;;;;6.24;98.88;97930.48;137031;1276;22436;-76
2024/02/10 00:57:09;;;;;;;;;;;;;;;6.28;98.90;97936.92;137119;1276;22432;-76
2024/02/10 01:04:00;;;;;;;;;;;;;;;;;;;;;
2024/02/10 01:07:47;;;;;;;;;;;;;;;6.31;99.30;97936.98;137132;1276;22441;-76
2024/02/10 01:11:51;;;;;;;;;;;;;;;6.36;98.97;97935.70;137102;1276;22449;-76
2024/02/10 01:14:58;;;;;;;;;;;;;;;;;;;;;
2024/02/10 01:18:37;;;;;;;;;;;;;;;6.35;98.93;97937.17;137109;1276;22315;-76
2024/02/10 01:26:47;;;;;;;;;;;;;;;6.28;99.01;97928.52;137083;1276;22443;-77
2024/02/10 01:30:02;;;;;;;;;;;;;;;;;;;;;
2024/02/10 01:33:56;;;;;;;;;;;;;;;;;;;;;
2024/02/10 01:37:38;;;;;;;;;;;;;;;6.07;98.91;97923.32;137074;1276;22427;-76
2024/02/10 01:41:19;;;;;;;;;;;;;;;5.96;98.72;97925.34;137052;1276;22402;-76
2024/02/10 01:47:45;;;;;;;;;;;;;;;5.86;99.35;97929.40;137136;1276;23420;-76
2024/02/10 01:51:07;;;;;;;;;;;;;;;5.84;99.45;97922.05;137007;1276;22417;-77
2024/02/10 01:55:13;;;;;;;;;;;;;;;5.83;99.34;97929.22;137146;1276;22416;-76
2024/02/10 01:58:17;;;;;;;;;;;;;;;;;;;;;
2024/02/10 02:01:59;;;;;;;;;;;;;;;;;;;;;
2024/02/10 02:06:19;;;;;;;;;;;;;;;5.76;99.55;97938.39;137107;1276;22473;-76
2024/02/10 02:09:47;;;;;;;;;;;;;;;5.69;99.45;97931.32;137034;1276;23525;-76
2024/02/10 02:12:52;;;;;;;;;;;;;;;5.60;99.74;97931.28;137134;1275;22329;-76
2024/02/10 02:16:09;;;;;;;;;;;;;;;5.54;99.80;97933.84;137037;1276;22412;-77
2024/02/10 02:19:35;;;;;;;;;;;;;;;;;;;;;
2024/02/10 02:23:14;;;;;;;;;;;;;;;5.56;100.00;97934.84;137146;1276;23086;-75
2024/02/10 02:27:11;;;;;;;;;;;;;;;5.62;100.00;97933.55;137122;1276;22484;-76
2024/02/10 02:34:37;;;;;;;;;;;;;;;;;;;;;
2024/02/10 02:41:44;;;;;;;;;;;;;;;6.05;100.00;97936.02;137046;1276;22455;-77
2024/02/10 02:45:15;;;;;;;;;;;;;;;6.15;100.00;97939.30;137109;1276;22421;-76
2024/02/10 02:48:19;;;;;;;;;;;;;;;6.23;100.00;97938.88;137139;1276;22285;-75
2024/02/10 02:51:34;;;;;;;;;;;;;;;6.26;100.00;97942.09;137008;1276;22391;-76
2024/02/10 02:59:07;;;;;;;;;;;;;;;6.34;100.00;97945.76;136909;1276;22436;-75
2024/02/10 03:02:58;;;;;;;;;;;;;;;;;;;;;
2024/02/10 03:06:09;;;;;;;;;;;;;;;6.36;100.00;97957.23;137126;1276;22422;-76
2024/02/10 03:09:16;;;;;;;;;;;;;;;6.35;100.00;97952.48;137101;1276;22412;-75
2024/02/10 03:12:17;;;;;;;;;;;;;;;6.33;99.98;97956.41;137127;1276;22296;-75
2024/02/10 03:15:21;;;;;;;;;;;;;;;6.29;99.88;97955.52;137091;1276;23175;-76
2024/02/10 03:18:31;;;;;;;;;;;;;;;6.23;99.95;97955.16;137127;1276;22236;-76
2024/02/10 03:22:00;;;;;;;;;;;;;;;6.17;99.83;97958.67;137130;1276;22430;-76
2024/02/10 03:25:22;;;;;;;;;;;;;;;6.07;99.88;97964.71;137127;1276;22428;-76
2024/02/10 03:28:34;;;;;;;;;;;;;;;6.07;100.00;97966.70;137056;1276;23127;-78
2024/02/10 03:31:35;;;;;;;;;;;;;;;6.13;100.00;97967.20;137115;1276;22397;-76
2024/02/10 03:35:14;;;;;;;;;;;;;;;;;;;;;
2024/02/10 03:43:08;;;;;;;;;;;;;;;6.21;100.00;97971.95;136885;1276;22433;-75
2024/02/10 03:46:46;;;;;;;;;;;;;;;6.25;100.00;97973.56;136958;1276;22488;-74
2024/02/10 03:54:19;;;;;;;;;;;;;;;6.16;100.00;97977.63;136879;1276;22516;-75
2024/02/10 03:57:19;;;;;;;;;;;;;;;6.11;100.00;97976.58;137110;1276;22436;-75
2024/02/10 04:00:38;;;;;;;;;;;;;;;6.03;100.00;97975.13;137154;1276;22356;-75
2024/02/10 04:04:02;;;;;;;;;;;;;;;6.01;100.00;97976.05;137131;1276;22291;-76
2024/02/10 04:08:25;;;;;;;;;;;;;;;5.98;100.00;97973.10;137141;1276;22484;-75
2024/02/10 04:12:03;;;;;;;;;;;;;;;;;;;;;
2024/02/10 04:15:14;;;;;;;;;;;;;;;6.02;100.00;97975.86;137072;1276;22441;-76
2024/02/10 04:18:36;;;;;;;;;;;;;;;6.07;100.00;97974.52;137065;1276;22380;-75
2024/02/10 04:22:02;;;;;;;;;;;;;;;6.09;100.00;97970.48;137155;1276;22515;-76
2024/02/10 04:25:16;;;;;;;;;;;;;;;6.14;100.00;97968.58;137097;1276;23062;-76
2024/02/10 04:33:23;;;;;;;;;;;;;;;6.19;100.00;97962.10;136902;1276;22457;-75
2024/02/10 04:36:30;;;;;;;;;;;;;;;;;;;;;
2024/02/10 04:39:46;;;;;;;;;;;;;;;;;;;;;
2024/02/10 04:51:49;;;;;;;;;;;;;;;;;;;;;
2024/02/10 04:55:55;;;;;;;;;;;;;;;6.34;100.00;97939.27;136925;1276;23339;-76
2024/02/10 04:59:38;;;;;;;;;;;;;;;6.30;100.00;97938.14;137124;1276;22462;-76
2024/02/10 05:10:10;;;;;;;;;;;;;;;;;;;;;
2024/02/10 05:14:03;;;;;;;;;;;;;;;;;;;;;
2024/02/10 05:17:42;;;;;;;;;;;;;;;;;;;;;
2024/02/10 05:21:44;;;;;;;;;;;;;;;6.11;100.00;97943.64;137151;1276;22441;-76
2024/02/10 05:24:50;;;;;;;;;;;;;;;6.09;100.00;97937.59;137159;1276;22299;-76
2024/02/10 05:28:03;;;;;;;;;;;;;;;6.09;100.00;97934.30;137153;1276;23030;-76
2024/02/10 05:31:07;;;;;;;;;;;;;;;6.08;100.00;97942.69;137136;1276;22293;-75
2024/02/10 05:34:48;;;;;;;;;;;;;;;;;;;;;
2024/02/10 05:37:56;;;;;;;;;;;;;;;6.15;100.00;97940.70;137070;1276;22462;-76
2024/02/10 05:41:07;;;;;;;;;;;;;;;6.20;100.00;97935.49;137199;1276;22447;-76
2024/02/10 05:44:12;;;;;;;;;;;;;;;6.21;100.00;97937.10;137188;1276;23203;-76
2024/02/10 05:47:15;;;;;;;;;;;;;;;6.22;100.00;97932.83;137214;1276;23155;-76
2024/02/10 05:55:25;;;;;;;;;;;;;;;6.29;100.00;97935.48;137185;1275;22444;-77
2024/02/10 05:58:37;;;;;;;;;;;;;;;6.33;100.00;97940.23;137120;1276;22507;-77
2024/02/10 06:02:21;;;;;;;;;;;;;;;6.43;100.00;97933.48;137048;1276;22474;-76
2024/02/10 06:05:45;;;;;;;;;;;;;;;6.44;100.00;97926.45;137138;1276;22435;-76
2024/02/10 06:08:57;;;;;;;;;;;;;;;6.41;100.00;97922.05;137186;1276;22431;-76
2024/02/10 06:12:28;;;;;;;;;;;;;;;;;;;;;
2024/02/10 06:15:49;;;;;;;;;;;;;;;6.29;100.00;97932.52;136890;1276;22473;-76
2024/02/10 06:19:14;;;;;;;;;;;;;;;6.22;100.00;97934.20;137157;1276;22394;-76
2024/02/10 06:22:18;;;;;;;;;;;;;;;6.18;100.00;97941.02;137160;1276;22450;-76
2024/02/10 06:29:45;;;;;;;;;;;;;;;6.12;100.00;97944.10;137031;1276;23080;-75
2024/02/10 06:33:33;;;;;;;;;;;;;;;6.11;100.00;97944.81;137050;1276;22417;-77
2024/02/10 06:40:46;;;;;;;;;;;;;;;6.08;100.00;97936.53;137087;1276;23184;-76
2024/02/10 06:44:04;;;;;;;;;;;;;;;6.11;100.00;97933.70;137143;1276;22427;-76
2024/02/10 06:47:45;;;;;;;;;;;;;;;6.15;100.00;97928.48;137146;1276;22467;-76
2024/02/10 06:50:46;;;;;;;;;;;;;;;6.18;100.00;97928.71;137181;1276;23014;-76
2024/02/10 06:53:47;;;;;;;;;;;;;;;6.27;100.00;97930.30;137174;1276;22485;-76
2024/02/10 06:57:00;;;;;;;;;;;;;;;6.44;100.00;97932.20;137126;1276;22295;-76
2024/02/10 07:03:46;;;;;;;;;;;;;;;6.97;100.00;97934.58;137099;1276;22456;-77
2024/02/10 07:06:49;;;;;;;;;;;;;;;7.23;100.00;97940.05;137133;1272;23031;-75
2024/02/10 07:09:59;;;;;;;;;;;;;;;7.51;100.00;97941.98;137154;1276;22403;-76
2024/02/10 07:13:04;;;;;;;;;;;;;;;7.87;100.00;97950.17;137131;1276;22970;-77
2024/02/10 07:20:13;;;;;;;;;;;;;;;8.44;100.00;97957.61;137048;1276;22442;-76
2024/02/10 07:23:50;;;;;;;;;;;;;;;;;;;;;
2024/02/10 07:27:03;;;;;;;;;;;;;;;8.58;100.00;97962.52;137064;1276;22368;-76
2024/02/10 07:30:18;;;;;;;;;;;;;;;;;;;;;
2024/02/10 07:33:58;;;;;;;;;;;;;;;;;;;;;
2024/02/10 07:37:19;;;;;;;;;;;;;;;8.41;100.00;97971.20;137148;1276;22430;-74
2024/02/10 07:40:20;;;;;;;;;;;;;;;8.38;100.00;97977.98;137165;1276;22403;-77
2024/02/10 07:43:44;;;;;;;;;;;;;;;8.36;100.00;97979.43;137138;1277;23096;-76
2024/02/10 07:47:10;;;;;;;;;;;;;;;8.23;100.00;97983.21;137126;1276;22358;-76
2024/02/10 07:50:40;;;;;;;;;;;;;;;8.16;100.00;97978.21;137079;1276;22415;-78
2024/02/10 07:53:44;;;;;;;;;;;;;;;8.07;100.00;97977.11;137081;1267;22293;-74
2024/02/10 07:56:46;;;;;;;;;;;;;;;8.00;100.00;97979.92;137122;1276;23137;-74
2024/02/10 07:59:51;;;;;;;;;;;;;;;7.97;100.00;97977.32;137087;1276;23151;-75
2024/02/10 08:02:52;;;;;;;;;;;;;;;7.97;100.00;97974.52;137099;1274;23079;-75
2024/02/10 08:06:04;;;;;;;;;;;;;;;7.99;100.00;97980.25;137109;1276;22393;-74
2024/02/10 08:09:07;;;;;;;;;;;;;;;7.99;100.00;97977.27;137113;1277;23426;-75
2024/02/10 08:12:47;;;;;;;;;;;;;;;;;;;;;
2024/02/10 08:17:07;;;;;;;;;;;;;;;8.14;100.00;97978.17;137098;1276;22458;-75
2024/02/10 08:19:56;;;;;;;;;;;;;;;8.29;100.00;97980.05;136953;1276;22437;-74
2024/02/10 08:23:17;;;;;;;;;;;;;;;8.38;100.00;97977.25;137110;1276;23121;-75
2024/02/10 08:26:33;;;;;;;;;;;;;;;8.51;100.00;97975.67;137107;1276;23263;-73
2024/02/10 08:33:33;;;;;;;;;;;;;;;;;;;;;
2024/02/10 08:36:58;;;;;;;;;;;;;;;;;;;;;
2024/02/10 08:40:12;;;;;;;;;;;;;;;8.85;100.00;97990.27;137127;1277;22312;-75
2024/02/10 08:43:17;;;;;;;;;;;;;;;8.91;100.00;97993.89;137143;1277;23048;-75
2024/02/10 08:46:32;;;;;;;;;;;;;;;8.99;100.00;97994.55;137133;1277;22380;-75
2024/02/10 08:49:36;;;;;;;;;;;;;;;9.06;100.00;97988.84;137014;1277;22291;-75
2024/02/10 08:56:43;;;;;;;;;;;;;;;;;;;;;
2024/02/10 08:59:53;;;;;;;;;;;;;;;9.53;100.00;98002.20;136876;1278;22337;-76
2024/02/10 09:03:13;;;;;;;;;;;;;;;9.65;100.00;98003.89;136886;1275;22448;-75
2024/02/10 09:06:57;;;;;;;;;;;;;;;9.78;100.00;98005.27;136900;1278;22433;-76
2024/02/10 09:10:40;;;;;;;;;;;;;;;9.92;100.00;98006.63;136853;1278;22984;-76
2024/02/10 09:14:51;;;;;;;;;;;;;;;9.99;100.00;98009.42;136765;1278;22431;-75
2024/02/10 09:18:08;;;;;;;;;;;;;;;;;;;;;
2024/02/10 09:24:58;;;;;;;;;;;;;;;10.39;100.00;98015.05;137085;1276;22445;-79
2024/02/10 09:28:26;;;;;;;;;;;;;;;10.50;100.00;98022.56;137121;1277;22440;-78
2024/02/10 09:31:50;;;;;;;;;;;;;;;10.52;100.00;98020.73;137126;1275;22335;-78
2024/02/10 09:34:56;;;;;;;;;;;;;;;10.59;100.00;98021.84;133011;1276;22462;-78
2024/02/10 09:38:02;;;;;;;;;;;;;;;10.72;100.00;98028.39;137137;1276;22273;-79
2024/02/10 09:41:28;;;;;;;;;;;;;;;10.77;100.00;98027.05;137124;1276;22436;-79
2024/02/10 09:44:31;;;;;;;;;;;;;;;10.75;100.00;98031.44;137113;1276;22331;-80
2024/02/10 09:47:42;;;;;;;;;;;;;;;10.76;100.00;98028.62;137092;1276;22404;-80
2024/02/10 09:50:46;;;;;;;;;;;;;;;10.75;100.00;98028.26;137181;1276;22274;-80
2024/02/10 09:53:52;;;;;;;;;;;;;;;10.68;100.00;98025.66;137159;1275;22277;-78
2024/02/10 09:56:56;;;;;;;;;;;;;;;10.74;100.00;98018.94;137141;1277;22367;-80
2024/02/10 10:00:19;;;;;;;;;;;;;;;10.81;100.00;98017.89;137162;1272;22384;-81
2024/02/10 10:03:24;;;;;;;;;;;;;;;11.03;100.00;98019.57;137177;1276;22486;-79
2024/02/10 10:06:46;;;;;;;;;;;;;;;11.42;100.00;98021.09;137130;1276;22423;-85
2024/02/10 10:09:46;;;;;;;;;;;;;;;11.54;100.00;98019.54;137083;1276;22468;-81
2024/02/10 10:12:47;;;;;;;;;;;;;;;11.51;100.00;98019.63;137146;1276;22397;-80
2024/02/10 10:15:47;;;;;;;;;;;;;;;11.48;100.00;98022.20;137123;1276;22847;-79
2024/02/10 10:18:55;;;;;;;;;;;;;;;11.45;100.00;98013.54;137131;1276;22401;-81
2024/02/10 10:21:57;;;;;;;;;;;;;;;11.47;100.00;98014.52;137161;1276;22333;-82
2024/02/10 10:24:58;;;;;;;;;;;;;;;11.45;100.00;98012.02;137146;1276;23083;-77
2024/02/10 10:27:59;;;;;;;;;;;;;;;11.49;100.00;98009.11;137064;1276;22353;-78
2024/02/10 10:31:04;;;;;;;;;;;;;;;11.52;99.99;98012.35;137099;1274;22391;-82
2024/02/10 10:34:10;;;;;;;;;;;;;;;11.52;99.96;98010.27;136915;1276;22312;-83
2024/02/10 10:37:11;;;;;;;;;;;;;;;11.57;99.77;98006.55;137131;1276;22426;-78
2024/02/10 10:40:12;;;;;;;;;;;;;;;11.54;99.17;98002.77;137103;1276;22388;-81
2024/02/10 10:43:17;;;;;;;;;;;;;;;11.49;98.83;97998.73;136944;1276;22544;-76
2024/02/10 10:46:19;;;;;;;;;;;;;;;11.45;98.59;97999.97;137155;1276;22390;-76
2024/02/10 10:49:20;;;;;;;;;;;;;;;11.42;98.56;97995.43;137124;1276;22426;-79
2024/02/10 10:52:43;;;;;;;;;;;;;;;11.41;98.55;97991.33;137111;1276;22431;-77
2024/02/10 10:56:35;;;;;;;;;;;;;;;;;;;;;
2024/02/10 10:59:39;;;;;;;;;;;;;;;11.94;99.95;97991.98;137036;1276;22431;-77
2024/02/10 11:02:40;;;;;;;;;;;;;;;12.29;99.80;97994.02;137110;1276;22383;-75
2024/02/10 11:05:50;;;;;;;;;;;;;;;12.65;99.00;97995.17;137115;1275;22375;-76
2024/02/10 11:09:03;;;;;;;;;;;;;;;12.82;97.58;97992.62;137053;1276;22311;-79
2024/02/10 11:12:10;;;;;;;;;;;;;;;12.89;97.21;97995.77;137128;1276;22296;-77
2024/02/10 11:15:21;;;;;;;;;;;;;;;12.89;96.03;97992.98;137134;1276;22776;-78
2024/02/10 11:18:25;;;;;;;;;;;;;;;12.86;95.49;97978.18;136908;1276;22797;-78
2024/02/10 11:21:28;;;;;;;;;;;;;;;12.86;95.47;97963.44;137097;1276;22397;-77
2024/02/10 11:24:35;;;;;;;;;;;;;;;12.90;94.82;97961.77;137090;1276;23010;-78
2024/02/10 11:27:45;;;;;;;;;;;;;;;12.88;93.80;97963.00;137102;1276;22439;-73
2024/02/10 11:31:09;;;;;;;;;;;;;;;12.85;92.97;97957.55;137139;1276;22505;-74
2024/02/10 11:34:32;;;;;;;;;;;;;;;12.89;93.70;97957.35;137117;1276;22428;-75
2024/02/10 11:37:37;;;;;;;;;;;;;;;13.01;93.56;97953.80;137143;1276;22398;-73
2024/02/10 11:40:37;;;;;;;;;;;;;;;13.07;92.77;97949.23;137113;1276;22271;-74
2024/02/10 11:43:55;;;;;;;;;;;;;;;12.99;91.63;97943.06;137131;1276;22276;-79
2024/02/10 11:46:59;;;;;;;;;;;;;;;12.93;92.09;97940.00;137143;1276;22354;-81
2024/02/10 11:50:23;;;;;;;;;;;;;;;13.03;92.00;97934.92;137054;1276;22435;-79
2024/02/10 11:53:26;;;;;;;;;;;;;;;13.11;91.57;97935.67;137089;1276;22400;-81
2024/02/10 11:56:34;;;;;;;;;;;;;;;13.19;90.98;97935.14;137122;1273;22383;-80
2024/02/10 11:59:37;;;;;;;;;;;;;;;13.17;90.90;97932.83;137127;1275;22282;-80
2024/02/10 12:02:41;;;;;;;;;;;;;;;13.25;91.38;97934.37;137063;1273;22440;-79
2024/02/10 12:05:45;;;;;;;;;;;;;;;13.38;91.39;97937.66;137098;1275;23018;-77
2024/02/10 12:08:48;;;;;;;;;;;;;;;13.52;91.14;97936.55;137104;1276;22471;-78
2024/02/10 12:11:55;;;;;;;;;;;;;;;13.61;90.22;97932.29;137111;1277;22449;-79
2024/02/10 12:14:59;;;;;;;;;;;;;;;13.56;89.04;97926.70;137130;1276;23171;-77
2024/02/10 12:18:00;;;;;;;;;;;;;;;13.57;89.39;97934.18;136961;1276;22459;-79
2024/02/10 12:21:04;;;;;;;;;;;;;;;13.61;89.04;97935.90;137133;1276;22427;-78
2024/02/10 12:24:08;;;;;;;;;;;;;;;13.64;87.54;97933.83;137133;1276;22382;-81
2024/02/10 12:27:16;;;;;;;;;;;;;;;13.68;87.71;97937.09;137130;1276;22316;-80
2024/02/10 12:30:23;;;;;;;;;;;;;;;13.76;88.24;97937.87;137138;1276;22288;-80
2024/02/10 12:33:26;;;;;;;;;;;;;;;13.80;87.11;97935.27;137133;1276;22327;-79
2024/02/10 12:48:53;;;;;;;;;;;;;;;;;;;;;
2024/02/10 12:52:06;;;;;;;;;;;;;;;14.04;84.73;97925.22;137132;1276;22270;-79
2024/02/10 12:55:49;;;;;;;;;;;;;;;14.00;84.32;97929.48;137150;1277;22358;-79
2024/02/10 12:58:56;;;;;;;;;;;;;;;13.93;83.47;97933.94;137043;1277;22506;-79
2024/02/10 13:02:26;;;;;;;;;;;;;;;13.89;83.58;97927.63;137169;1277;22433;-79
2024/02/10 13:05:37;;;;;;;;;;;;;;;13.91;83.31;97925.23;137112;1277;23080;-80
2024/02/10 13:08:41;;;;;;;;;;;;;;;14.02;83.01;97928.64;136944;1277;22299;-77
2024/02/10 13:11:49;;;;;;;;;;;;;;;14.06;82.67;97929.56;137134;1277;22324;-76
2024/02/10 13:15:05;;;;;;;;;;;;;;;14.03;82.32;97923.17;137160;1277;22408;-79
2024/02/10 13:18:35;;;;;;;;;;;;;;;;;;;;;
2024/02/10 13:21:41;;;;;;;;;;;;;;;13.84;81.45;97924.46;137139;1277;22287;-78
2024/02/10 13:24:42;;;;;;;;;;;;;;;13.78;81.91;97923.36;137112;1277;23066;-78
2024/02/10 13:27:45;;;;;;;;;;;;;;;13.74;81.01;97919.98;137107;1276;22405;-78
2024/02/10 13:30:49;;;;;;;;;;;;;;;13.63;81.07;97917.19;137091;1273;22397;-77
2024/02/10 13:33:52;;;;;;;;;;;;;;;13.59;81.21;97916.20;137147;1276;23222;-79
2024/02/10 14:05:58;;;;;;;;;;;;;;;12.99;80.36;97927.46;137204;1276;22445;-77
2024/02/10 14:09:03;;;;;;;;;;;;;;;12.90;80.41;97932.35;137160;1276;22260;-81
2024/02/10 14:12:04;;;;;;;;;;;;;;;12.86;80.20;97928.99;137161;1276;23311;-74
2024/02/10 14:15:16;;;;;;;;;;;;;;;12.84;80.39;97931.95;137151;1276;22380;-74
2024/02/10 14:18:20;;;;;;;;;;;;;;;12.81;80.22;97929.54;137183;1276;22278;-77
2024/02/10 14:21:33;;;;;;;;;;;;;;;12.78;80.25;97928.36;137169;1276;22396;-75
2024/02/10 14:25:12;;;;;;;;;;;;;;;;;;;;;
2024/02/10 14:28:57;;;;;;;;;;;;;;;12.67;80.34;97927.50;137124;1276;22332;-76
2024/02/10 14:32:30;;;;;;;;;;;;;;;;;;;;;
2024/02/10 14:39:28;;;;;;;;;;;;;;;12.54;80.66;97936.09;136394;1278;23026;-79
2024/02/10 14:42:28;;;;;;;;;;;;;;;12.50;80.62;97943.08;137067;1276;22397;-79
2024/02/10 14:45:29;;;;;;;;;;;;;;;12.44;80.73;97944.96;137126;1276;22401;-80
2024/02/10 14:48:30;;;;;;;;;;;;;;;12.39;80.92;97947.24;137131;1273;22397;-77
2024/02/10 14:51:31;;;;;;;;;;;;;;;12.32;80.71;97947.61;136985;1276;22405;-77
2024/02/10 14:54:31;;;;;;;;;;;;;;;12.27;81.12;97953.72;137099;1276;22446;-81
2024/02/10 14:57:32;;;;;;;;;;;;;;;12.23;81.15;97956.23;137111;1276;23005;-79
2024/02/10 15:00:33;;;;;;;;;;;;;;;12.18;81.22;97955.98;137101;1276;22400;-79
2024/02/10 15:03:36;;;;;;;;;;;;;;;12.13;81.52;97955.40;137090;1276;22435;-80
2024/02/10 15:06:38;;;;;;;;;;;;;;;12.09;81.55;97951.92;137171;1274;22419;-80
2024/02/10 15:09:39;;;;;;;;;;;;;;;12.02;81.65;97947.77;137124;1276;22396;-79
2024/02/10 15:12:40;;;;;;;;;;;;;;;11.97;81.67;97944.61;137125;1276;22388;-77
2024/02/10 15:15:43;;;;;;;;;;;;;;;11.91;81.75;97944.55;137079;1276;22409;-79
2024/02/10 15:18:44;;;;;;;;;;;;;;;11.85;82.01;97937.60;137179;1276;22419;-71
2024/02/10 15:21:45;;;;;;;;;;;;;;;11.81;82.19;97937.15;137109;1276;22384;-72
2024/02/10 15:24:46;;;;;;;;;;;;;;;11.75;82.33;97937.86;136926;1274;22413;-72
2024/02/10 15:27:50;;;;;;;;;;;;;;;11.68;82.45;97935.99;137151;1276;22398;-87
2024/02/10 15:32:06;;;;;;;;;;;;;;;11.60;82.62;97936.68;136985;1276;23183;-76
2024/02/10 15:35:23;;;;;;;;;;;;;;;11.50;82.96;97939.23;136956;1276;22508;-83
2024/02/10 15:38:24;;;;;;;;;;;;;;;11.40;83.16;97939.56;137161;1276;22390;-83
2024/02/10 15:41:28;;;;;;;;;;;;;;;11.33;83.29;97934.02;137131;1276;22426;-82
2024/02/10 15:44:30;;;;;;;;;;;;;;;11.28;83.58;97929.88;137123;1276;22370;-81
2024/02/10 15:47:31;;;;;;;;;;;;;;;11.23;83.82;97932.77;136960;1277;22415;-72
2024/02/10 15:50:34;;;;;;;;;;;;;;;11.21;84.40;97937.24;137154;1276;22367;-73
2024/02/10 15:53:38;;;;;;;;;;;;;;;11.19;84.52;97937.98;137025;1276;22380;-72
2024/02/10 15:56:44;;;;;;;;;;;;;;;11.14;84.60;97936.64;136753;1276;22456;-73
2024/02/10 15:59:45;;;;;;;;;;;;;;;11.12;84.88;97934.92;137022;1276;22531;-76
2024/02/10 16:02:49;;;;;;;;;;;;;;;11.03;84.79;97942.79;137095;1270;22398;-74
2024/02/10 16:05:52;;;;;;;;;;;;;;;10.91;85.04;97950.46;136958;1276;22521;-72
2024/02/10 16:08:54;;;;;;;;;;;;;;;10.80;85.32;97955.25;137137;1276;22378;-76
2024/02/10 16:11:55;;;;;;;;;;;;;;;10.72;85.76;97960.10;137129;1276;23078;-71
2024/02/10 16:14:58;;;;;;;;;;;;;;;10.71;86.29;97962.89;137114;1276;22406;-75
2024/02/10 16:18:00;;;;;;;;;;;;;;;10.67;86.29;97961.02;137148;1276;23123;-73
2024/02/10 16:21:01;;;;;;;;;;;;;;;10.62;86.52;97966.08;137125;1276;22396;-74
2024/02/10 16:24:03;;;;;;;;;;;;;;;10.58;86.74;97971.82;137117;1276;22382;-75
2024/02/10 16:27:11;;;;;;;;;;;;;;;10.50;86.65;97968.56;137153;1276;22401;-73
2024/02/10 16:30:16;;;;;;;;;;;;;;;10.40;87.05;97967.64;137131;1276;22369;-74
2024/02/10 16:33:16;;;;;;;;;;;;;;;10.32;87.19;97973.63;137141;1276;22435;-76
2024/02/10 16:36:21;;;;;;;;;;;;;;;10.26;87.44;97976.02;137014;1276;22389;-76
2024/02/10 16:39:29;;;;;;;;;;;;;;;10.19;87.53;97978.59;137123;1276;22385;-77
2024/02/10 16:42:30;;;;;;;;;;;;;;;10.11;87.60;97970.79;137105;1276;22298;-77
2024/02/10 16:45:35;;;;;;;;;;;;;;;10.05;88.02;97967.77;137118;1276;22437;-76
2024/02/10 16:48:36;;;;;;;;;;;;;;;9.98;88.21;97971.66;137145;1276;22433;-76
2024/02/10 16:51:57;;;;;;;;;;;;;;;9.92;88.37;97968.40;137121;1276;22354;-77
2024/02/10 16:54:59;;;;;;;;;;;;;;;9.84;88.46;97970.45;137034;1276;22439;-76
2024/02/10 16:58:00;;;;;;;;;;;;;;;9.80;88.76;97971.86;137113;1276;22368;-75
2024/02/10 17:01:03;;;;;;;;;;;;;;;9.76;88.89;97974.62;137098;1276;22399;-76
2024/02/10 17:04:04;;;;;;;;;;;;;;;9.75;89.08;97975.88;137109;1276;22479;-77
2024/02/10 17:07:05;;;;;;;;;;;;;;;9.72;89.45;97975.95;137118;1270;22381;-76
2024/02/10 17:10:05;;;;;;;;;;;;;;;9.68;89.37;97973.86;137072;1276;22387;-75
2024/02/10 17:13:12;;;;;;;;;;;;;;;9.63;89.60;97978.56;137067;1276;22376;-75
2024/02/10 17:16:15;;;;;;;;;;;;;;;9.58;89.88;97977.45;137011;1276;22400;-76
2024/02/10 17:19:22;;;;;;;;;;;;;;;9.53;90.06;97981.52;136987;1276;22332;-75
2024/02/10 17:22:28;;;;;;;;;;;;;;;9.48;90.43;97986.67;137117;1276;22438;-76
2024/02/10 17:25:37;;;;;;;;;;;;;;;9.44;90.60;97983.48;137066;1276;23094;-75
2024/02/10 17:28:38;;;;;;;;;;;;;;;9.41;90.70;97982.67;137079;1276;23154;-75
2024/02/10 17:31:39;;;;;;;;;;;;;;;9.38;90.96;97984.16;137098;1276;22616;-76
2024/02/10 17:34:40;;;;;;;;;;;;;;;9.34;91.12;97979.58;137133;1273;22378;-75
2024/02/10 17:37:42;;;;;;;;;;;;;;;9.30;91.26;97980.16;137048;1276;22390;-75
2024/02/10 17:40:42;;;;;;;;;;;;;;;9.25;91.31;97976.11;137095;1276;22405;-74
2024/02/10 17:43:46;;;;;;;;;;;;;;;9.20;91.80;97976.09;137035;1276;22402;-75
2024/02/10 17:46:50;;;;;;;;;;;;;;;9.14;91.77;97971.83;137093;1276;23181;-74
2024/02/10 17:49:52;;;;;;;;;;;;;;;9.10;91.79;97969.65;137056;1276;22386;-78
2024/02/10 17:52:53;;;;;;;;;;;;;;;9.05;92.05;97966.63;137097;1276;22464;-76
2024/02/10 17:55:59;;;;;;;;;;;;;;;9.00;92.36;97963.63;136937;1276;22400;-77
2024/02/10 17:59:03;;;;;;;;;;;;;;;8.94;92.49;97962.99;137073;1276;22438;-75
2024/02/10 18:02:04;;;;;;;;;;;;;;;8.89;92.79;97961.18;137080;1276;22407;-76
2024/02/10 18:05:25;;;;;;;;;;;;;;;8.86;93.12;97954.73;137073;1276;22386;-76
2024/02/10 18:08:34;;;;;;;;;;;;;;;8.82;93.22;97950.30;137062;1276;22305;-76
2024/02/10 18:11:36;;;;;;;;;;;;;;;8.80;93.27;97947.34;137070;1276;22415;-76
2024/02/10 18:14:43;;;;;;;;;;;;;;;8.78;94.06;97952.11;136787;1276;23236;-78
2024/02/10 18:17:50;;;;;;;;;;;;;;;8.77;94.17;97952.11;137056;1276;22388;-77
2024/02/10 18:20:51;;;;;;;;;;;;;;;8.76;94.23;97953.17;137052;1276;22929;-75
2024/02/10 18:23:55;;;;;;;;;;;;;;;8.73;94.08;97950.64;137087;1276;23023;-76
2024/02/10 18:26:57;;;;;;;;;;;;;;;8.70;94.56;97947.45;137072;1276;22425;-77
2024/02/10 18:29:57;;;;;;;;;;;;;;;8.67;94.56;97946.19;137072;1276;22434;-76
2024/02/10 18:33:01;;;;;;;;;;;;;;;8.63;94.86;97940.39;137078;1276;22465;-76
2024/02/10 18:36:06;;;;;;;;;;;;;;;8.60;94.89;97938.23;136951;1276;22266;-75
2024/02/10 18:39:07;;;;;;;;;;;;;;;8.56;94.92;97939.42;137094;1273;22400;-77
2024/02/10 18:42:24;;;;;;;;;;;;;;;8.54;95.21;97944.27;137077;1276;22359;-76
2024/02/10 18:45:43;;;;;;;;;;;;;;;;;;;;;
2024/02/10 18:49:34;;;;;;;;;;;;;;;8.46;95.39;97936.55;137032;1276;22483;-76
2024/02/10 18:52:35;;;;;;;;;;;;;;;8.39;95.50;97931.36;136961;1276;22442;-76
2024/02/10 18:55:36;;;;;;;;;;;;;;;8.34;95.70;97930.89;137079;1276;23054;-77
2024/02/10 18:58:42;;;;;;;;;;;;;;;8.30;96.00;97931.83;136950;1276;22378;-76
2024/02/10 19:01:47;;;;;;;;;;;;;;;8.25;96.31;97932.48;137089;1276;22758;-76
2024/02/10 19:08:32;;;;;;;;;;;;;;;8.14;96.29;97929.70;136985;1276;22442;-75
2024/02/10 19:11:47;;;;;;;;;;;;;;;8.10;96.59;97928.84;137087;1276;22432;-76
2024/02/10 19:14:52;;;;;;;;;;;;;;;8.05;96.46;97929.50;137113;1276;22386;-76
2024/02/10 19:17:53;;;;;;;;;;;;;;;8.00;96.65;97929.90;137102;1276;22312;-75
2024/02/10 19:21:14;;;;;;;;;;;;;;;7.98;97.24;97924.42;137049;1262;23109;-76
2024/02/10 19:28:15;;;;;;;;;;;;;;;7.93;97.56;97924.90;137040;1276;22457;-73
2024/02/10 19:31:20;;;;;;;;;;;;;;;7.89;97.22;97927.23;137101;1276;22282;-81
2024/02/10 19:34:37;;;;;;;;;;;;;;;;;;;;;
2024/02/10 19:37:57;;;;;;;;;;;;;;;7.82;97.37;97928.75;137104;1276;22450;-76
2024/02/10 19:41:01;;;;;;;;;;;;;;;7.80;98.07;97931.94;137147;1276;23063;-78
2024/02/10 19:44:01;;;;;;;;;;;;;;;7.78;98.45;97931.29;137138;1269;22453;-78
2024/02/10 19:47:02;;;;;;;;;;;;;;;7.78;99.21;97939.40;137108;1276;23069;-77
2024/02/10 19:57:55;;;;;;;;;;;;;;;7.78;99.64;97936.72;137087;1276;22445;-78
2024/02/10 20:00:57;;;;;;;;;;;;;;;7.75;99.92;97935.90;137078;1276;22465;-77